createdAt,value
2022-10-07T00:01:31.395Z,62.65
2022-10-07T00:03:58.295Z,63.09
2022-10-07T00:06:24.936Z,61.80
2022-10-07T00:08:52.505Z,66.49
2022-10-07T00:11:23.980Z,66.10
2022-10-07T00:13:53.060Z,65.48
2022-10-07T00:16:21.269Z,65.17
2022-10-07T00:18:51.975Z,63.94
2022-10-07T00:21:19.775Z,67.23
2022-10-07T00:23:47.220Z,65.58
2022-10-07T00:26:16.055Z,65.42
2022-10-07T00:28:43.075Z,66.27
2022-10-07T00:31:12.739Z,65.78
2022-10-07T00:33:40.099Z,64.94
2022-10-07T00:36:14.976Z,64.38
2022-10-07T00:38:41.774Z,64.71
2022-10-07T00:41:09.413Z,65.44
2022-10-07T00:43:36.062Z,64.60
2022-10-07T00:46:07.622Z,64.14
2022-10-07T00:48:36.529Z,66.26
2022-10-07T00:51:03.448Z,64.45
2022-10-07T00:53:31.728Z,63.52
2022-10-07T00:56:01.937Z,63.96
2022-10-07T00:58:33.329Z,63.55
2022-10-07T01:00:59.993Z,64.30
2022-10-07T01:03:26.807Z,63.25
2022-10-07T01:05:53.495Z,63.36
2022-10-07T01:08:21.168Z,64.60
2022-10-07T01:11:14.286Z,64.14
2022-10-07T01:13:59.372Z,64.39
2022-10-07T01:16:33.054Z,64.89
2022-10-07T01:19:04.128Z,65.99
2022-10-07T01:21:33.959Z,65.09
2022-10-07T01:24:00.586Z,64.83
2022-10-07T01:26:40.353Z,63.57
2022-10-07T01:29:21.553Z,62.96
2022-10-07T01:32:01.269Z,63.36
2022-10-07T01:34:28.618Z,63.32
2022-10-07T01:36:58.549Z,63.23
2022-10-07T01:39:29.408Z,62.70
2022-10-07T01:41:57.030Z,62.33
2022-10-07T01:44:26.673Z,61.83
2022-10-07T01:46:53.432Z,61.39
2022-10-07T01:49:20.035Z,62.31
2022-10-07T01:51:49.512Z,61.65
2022-10-07T01:54:41.450Z,61.92
2022-10-07T01:57:11.120Z,62.13
2022-10-07T01:59:51.509Z,61.63
2022-10-07T02:02:35.591Z,62.10
2022-10-07T02:05:21.030Z,61.83
2022-10-07T02:07:53.769Z,61.99
2022-10-07T02:10:38.838Z,61.65
2022-10-07T02:13:15.520Z,61.48
2022-10-07T02:15:53.133Z,61.37
2022-10-07T02:18:20.643Z,61.76
2022-10-07T02:20:49.353Z,61.38
2022-10-07T02:23:18.327Z,61.57
2022-10-07T02:25:47.191Z,61.88
2022-10-07T02:28:16.368Z,61.83
2022-10-07T02:30:45.099Z,61.39
2022-10-07T02:33:12.549Z,61.64
2022-10-07T02:35:48.119Z,62.35
2022-10-07T02:38:16.524Z,62.02
2022-10-07T02:40:49.080Z,61.79
2022-10-07T02:43:23.554Z,61.98
2022-10-07T02:45:55.152Z,62.47
2022-10-07T02:48:32.941Z,62.27
2022-10-07T02:51:02.310Z,61.57
2022-10-07T02:53:30.036Z,61.62
2022-10-07T02:55:57.472Z,61.43
2022-10-07T02:58:26.750Z,60.88
2022-10-07T03:00:58.149Z,61.08
2022-10-07T03:03:25.849Z,61.71
2022-10-07T03:05:52.924Z,61.86
2022-10-07T03:08:20.281Z,62.29
2022-10-07T03:10:46.961Z,61.29
2022-10-07T03:13:15.721Z,61.57
2022-10-07T03:15:43.356Z,62.24
2022-10-07T03:18:26.737Z,62.10
2022-10-07T03:20:55.559Z,61.64
2022-10-07T03:23:25.771Z,62.34
2022-10-07T03:25:53.235Z,61.59
2022-10-07T03:28:21.035Z,62.99
2022-10-07T03:30:48.142Z,62.24
2022-10-07T03:33:15.261Z,62.00
2022-10-07T03:35:42.222Z,62.58
2022-10-07T03:38:10.035Z,62.71
2022-10-07T03:40:37.211Z,62.14
2022-10-07T03:43:04.541Z,61.71
2022-10-07T03:45:31.263Z,61.56
2022-10-07T03:47:58.790Z,61.40
2022-10-07T03:50:26.460Z,62.53
2022-10-07T03:52:53.051Z,61.71
2022-10-07T03:55:20.131Z,61.59
2022-10-07T03:57:58.566Z,61.63
2022-10-07T04:00:26.782Z,61.85
2022-10-07T04:02:53.595Z,62.59
2022-10-07T04:05:21.079Z,63.02
2022-10-07T04:07:48.596Z,62.55
2022-10-07T04:10:17.152Z,62.59
2022-10-07T04:12:44.401Z,61.77
2022-10-07T04:15:14.311Z,61.52
2022-10-07T04:17:45.174Z,62.00
2022-10-07T04:20:13.237Z,62.10
2022-10-07T04:22:39.884Z,62.71
2022-10-07T04:25:25.870Z,62.13
2022-10-07T04:27:54.155Z,61.64
2022-10-07T04:30:21.890Z,61.77
2022-10-07T04:32:51.390Z,61.87
2022-10-07T04:35:18.750Z,62.38
2022-10-07T04:37:45.781Z,62.30
2022-10-07T04:40:12.590Z,61.82
2022-10-07T04:42:57.932Z,61.77
2022-10-07T04:45:24.651Z,62.00
2022-10-07T04:47:51.670Z,62.78
2022-10-07T04:50:18.400Z,63.07
2022-10-07T04:52:45.188Z,62.71
2022-10-07T04:55:12.671Z,62.29
2022-10-07T04:57:39.312Z,62.42
2022-10-07T05:00:06.482Z,63.08
2022-10-07T05:02:33.135Z,62.96
2022-10-07T05:05:00.170Z,62.90
2022-10-07T05:07:27.011Z,62.83
2022-10-07T05:09:53.614Z,63.37
2022-10-07T05:12:20.271Z,62.66
2022-10-07T05:14:46.930Z,62.88
2022-10-07T05:17:14.109Z,63.63
2022-10-07T05:19:41.121Z,63.88
2022-10-07T05:22:07.823Z,63.59
2022-10-07T05:24:34.601Z,64.23
2022-10-07T05:27:01.276Z,65.91
2022-10-07T05:29:27.905Z,68.08
2022-10-07T05:31:54.592Z,67.64
2022-10-07T05:34:21.320Z,67.15
2022-10-07T05:36:47.995Z,65.34
2022-10-07T05:39:15.024Z,63.44
2022-10-07T05:41:45.663Z,61.54
2022-10-07T05:44:13.190Z,59.26
2022-10-07T05:46:40.625Z,57.42
2022-10-07T05:49:07.299Z,56.01
2022-10-07T05:51:33.901Z,54.97
2022-10-07T05:54:00.577Z,53.68
2022-10-07T05:56:27.305Z,50.61
2022-10-07T05:58:54.023Z,49.13
2022-10-07T06:01:21.641Z,49.02
2022-10-07T06:03:52.935Z,48.62
2022-10-07T06:06:20.003Z,49.53
2022-10-07T06:08:47.395Z,46.88
2022-10-07T06:11:34.560Z,46.10
2022-10-07T06:14:01.950Z,46.75
2022-10-07T06:16:28.814Z,45.78
2022-10-07T06:18:56.361Z,45.68
2022-10-07T06:21:26.828Z,44.86
2022-10-07T06:23:57.277Z,45.93
2022-10-07T06:26:24.351Z,45.45
2022-10-07T06:28:51.158Z,46.75
2022-10-07T06:31:22.750Z,45.51
2022-10-07T06:33:50.258Z,44.70
2022-10-07T06:36:17.698Z,43.46
2022-10-07T06:38:45.807Z,42.68
2022-10-07T06:41:12.490Z,42.42
2022-10-07T06:43:39.192Z,41.34
2022-10-07T06:46:06.809Z,41.09
2022-10-07T06:48:34.737Z,40.43
2022-10-07T06:51:04.901Z,39.39
2022-10-07T06:53:32.121Z,39.71
2022-10-07T06:56:05.161Z,40.07
2022-10-07T06:58:32.570Z,39.04
2022-10-07T07:01:02.493Z,39.61
2022-10-07T07:03:29.617Z,40.78
2022-10-07T07:05:56.711Z,42.21
2022-10-07T07:08:24.619Z,44.60
2022-10-07T07:10:51.363Z,44.83
2022-10-07T07:13:18.364Z,45.62
2022-10-07T07:15:54.066Z,46.65
2022-10-07T07:18:20.879Z,50.15
2022-10-07T07:20:47.641Z,49.62
2022-10-07T07:23:14.334Z,53.38
2022-10-07T07:25:44.482Z,53.00
2022-10-07T07:28:12.232Z,52.97
2022-10-07T07:30:39.628Z,51.42
2022-10-07T07:33:06.641Z,53.03
2022-10-07T07:35:36.721Z,52.59
2022-10-07T07:38:22.233Z,52.76
2022-10-07T07:40:53.684Z,51.92
2022-10-07T07:43:20.499Z,53.80
2022-10-07T07:45:47.270Z,52.75
2022-10-07T07:48:14.202Z,53.99
2022-10-07T07:50:40.889Z,52.64
2022-10-07T07:53:07.541Z,52.76
2022-10-07T07:55:34.151Z,55.32
2022-10-07T07:58:01.580Z,55.35
2022-10-07T08:00:28.220Z,55.14
2022-10-07T08:02:54.916Z,52.54
2022-10-07T08:05:24.168Z,53.62
2022-10-07T08:07:52.572Z,53.88
2022-10-07T08:10:19.211Z,52.19
2022-10-07T08:12:46.023Z,53.05
2022-10-07T08:15:12.721Z,51.53
2022-10-07T08:17:39.388Z,53.97
2022-10-07T08:20:06.386Z,53.37
2022-10-07T08:22:33.050Z,51.72
2022-10-07T08:25:00.451Z,53.62
2022-10-07T08:27:28.476Z,51.41
2022-10-07T08:29:55.210Z,51.20
2022-10-07T08:32:21.938Z,49.84
2022-10-07T08:34:48.640Z,53.15
2022-10-07T08:37:15.300Z,51.85
2022-10-07T08:39:42.049Z,53.31
2022-10-07T08:42:15.590Z,49.78
2022-10-07T08:44:45.378Z,51.83
2022-10-07T08:47:16.269Z,50.81
2022-10-07T08:50:04.109Z,50.78
2022-10-07T08:52:34.640Z,49.50
2022-10-07T08:55:02.541Z,49.89
2022-10-07T08:57:38.721Z,49.06
2022-10-07T09:00:07.439Z,48.27
2022-10-07T09:03:00.243Z,46.75
2022-10-07T09:05:29.986Z,48.50
2022-10-07T09:07:58.677Z,48.37
2022-10-07T09:10:34.766Z,45.37
2022-10-07T09:13:05.592Z,45.01
2022-10-07T09:15:50.988Z,44.26
2022-10-07T09:18:23.870Z,45.22
2022-10-07T09:20:56.828Z,47.48
2022-10-07T09:23:25.083Z,48.00
2022-10-07T09:25:52.182Z,45.79
2022-10-07T09:28:19.998Z,45.49
2022-10-07T09:30:46.722Z,47.27
2022-10-07T09:33:18.801Z,49.14
2022-10-07T09:35:55.050Z,48.08
2022-10-07T09:38:36.148Z,46.28
2022-10-07T09:41:24.296Z,48.58
2022-10-07T09:44:04.080Z,47.81
2022-10-07T09:46:36.946Z,45.68
2022-10-07T09:49:04.659Z,43.49
2022-10-07T09:51:32.690Z,44.44
2022-10-07T09:54:02.960Z,46.31
2022-10-07T09:56:40.458Z,46.06
2022-10-07T09:59:17.540Z,44.54
2022-10-07T10:02:02.058Z,43.30
2022-10-07T10:04:39.672Z,43.70
2022-10-07T10:07:16.893Z,44.04
2022-10-07T10:09:50.868Z,43.70
2022-10-07T10:12:18.540Z,43.46
2022-10-07T10:14:55.449Z,43.77
2022-10-07T10:17:28.875Z,44.71
2022-10-07T10:19:56.190Z,43.61
2022-10-07T10:22:32.412Z,43.92
2022-10-07T10:25:17.881Z,42.66
2022-10-07T10:27:57.441Z,41.74
2022-10-07T10:30:24.980Z,42.73
2022-10-07T10:32:51.690Z,41.67
2022-10-07T10:35:21.538Z,41.86
2022-10-07T10:38:05.633Z,41.40
2022-10-07T10:40:32.280Z,42.11
2022-10-07T10:43:17.628Z,41.76
2022-10-07T10:45:51.426Z,40.29
2022-10-07T10:48:31.941Z,41.28
2022-10-07T10:51:10.702Z,40.61
2022-10-07T10:53:49.280Z,40.38
2022-10-07T10:56:32.305Z,43.02
2022-10-07T10:59:05.187Z,41.91
2022-10-07T11:01:40.386Z,41.21
2022-10-07T11:04:25.780Z,42.99
2022-10-07T11:07:00.969Z,39.50
2022-10-07T11:09:33.908Z,39.64
2022-10-07T11:12:03.816Z,40.92
2022-10-07T11:14:31.975Z,39.16
2022-10-07T11:17:05.193Z,43.10
2022-10-07T11:19:32.183Z,41.09
2022-10-07T11:22:00.184Z,42.30
2022-10-07T11:24:29.894Z,41.71
2022-10-07T11:26:59.943Z,41.64
2022-10-07T11:29:32.695Z,40.88
2022-10-07T11:32:05.823Z,40.56
2022-10-07T11:34:42.374Z,41.50
2022-10-07T11:37:19.222Z,39.59
2022-10-07T11:39:46.491Z,40.35
2022-10-07T11:42:13.141Z,39.95
2022-10-07T11:44:52.376Z,43.12
2022-10-07T11:47:21.531Z,42.39
2022-10-07T11:49:58.110Z,41.62
2022-10-07T11:52:27.150Z,42.82
2022-10-07T11:55:23.229Z,40.19
2022-10-07T11:57:54.410Z,40.35
2022-10-07T12:00:24.269Z,43.10
2022-10-07T12:02:51.847Z,41.48
2022-10-07T12:05:35.370Z,40.83
2022-10-07T12:08:03.409Z,39.99
2022-10-07T12:10:31.313Z,40.67
2022-10-07T12:12:59.654Z,41.19
2022-10-07T12:15:39.051Z,40.64
2022-10-07T12:18:05.762Z,38.89
2022-10-07T12:20:35.590Z,39.83
2022-10-07T12:23:21.163Z,37.45
2022-10-07T12:25:50.972Z,38.01
2022-10-07T12:28:24.433Z,40.31
2022-10-07T12:30:55.630Z,41.48
2022-10-07T12:33:29.119Z,41.40
2022-10-07T12:35:56.339Z,39.86
2022-10-07T12:38:27.315Z,39.94
2022-10-07T12:41:00.110Z,38.51
2022-10-07T12:43:38.633Z,37.34
2022-10-07T12:46:13.573Z,37.76
2022-10-07T12:48:44.191Z,39.21
2022-10-07T12:51:19.722Z,38.30
2022-10-07T12:53:47.912Z,39.74
2022-10-07T12:56:23.074Z,39.43
2022-10-07T12:59:39.980Z,41.23
2022-10-07T13:02:25.398Z,40.90
2022-10-07T13:04:52.303Z,40.00
2022-10-07T13:07:34.458Z,38.58
2022-10-07T13:10:07.400Z,38.37
2022-10-07T13:12:34.371Z,38.67
2022-10-07T13:15:07.822Z,37.64
2022-10-07T13:17:45.182Z,38.31
2022-10-07T13:20:24.281Z,38.19
2022-10-07T13:22:51.100Z,37.09
2022-10-07T13:25:19.797Z,36.31
2022-10-07T13:27:49.850Z,35.97
2022-10-07T13:30:33.663Z,34.29
2022-10-07T13:33:21.158Z,36.39
2022-10-07T13:35:48.291Z,34.71
2022-10-07T13:38:22.231Z,35.76
2022-10-07T13:40:59.204Z,35.22
2022-10-07T13:43:27.809Z,35.63
2022-10-07T13:45:54.899Z,35.63
2022-10-07T13:48:23.773Z,35.53
2022-10-07T13:50:51.851Z,35.07
2022-10-07T13:53:21.956Z,36.49
2022-10-07T13:55:48.921Z,36.11
2022-10-07T13:58:16.011Z,37.30
2022-10-07T14:00:44.953Z,37.29
2022-10-07T14:03:15.870Z,36.96
2022-10-07T14:05:49.724Z,38.57
2022-10-07T14:08:21.659Z,36.91
2022-10-07T14:10:51.556Z,37.70
2022-10-07T14:13:18.480Z,38.02
2022-10-07T14:15:54.551Z,39.37
2022-10-07T14:18:21.530Z,38.21
2022-10-07T14:20:48.397Z,38.15
2022-10-07T14:23:34.750Z,39.62
2022-10-07T14:26:05.926Z,39.02
2022-10-07T14:28:33.917Z,37.87
2022-10-07T14:31:25.674Z,40.69
2022-10-07T14:34:17.618Z,40.46
2022-10-07T14:37:19.742Z,41.32
2022-10-07T14:39:48.186Z,42.62
2022-10-07T14:42:36.472Z,41.61
2022-10-07T14:45:04.943Z,42.82
2022-10-07T14:47:31.740Z,42.00
2022-10-07T14:50:01.863Z,42.11
2022-10-07T14:52:29.985Z,43.00
2022-10-07T14:55:01.121Z,43.53
2022-10-07T14:57:27.874Z,43.35
2022-10-07T14:59:55.009Z,43.16
2022-10-07T15:02:22.334Z,42.36
2022-10-07T15:04:49.618Z,43.01
2022-10-07T15:07:16.866Z,43.38
2022-10-07T15:09:44.533Z,44.46
2022-10-07T15:12:11.809Z,44.08
2022-10-07T15:14:38.474Z,44.66
2022-10-07T15:17:06.270Z,45.27
2022-10-07T15:19:33.423Z,44.38
2022-10-07T15:22:00.375Z,45.15
2022-10-07T15:24:30.356Z,45.48
2022-10-07T15:26:57.055Z,44.87
2022-10-07T15:29:23.943Z,44.69
2022-10-07T15:31:52.290Z,45.48
2022-10-07T15:34:19.130Z,45.58
2022-10-07T15:36:46.970Z,45.83
2022-10-07T15:39:13.551Z,48.31
2022-10-07T15:41:41.495Z,49.20
2022-10-07T15:44:14.420Z,48.53
2022-10-07T15:46:41.131Z,48.99
2022-10-07T15:49:08.296Z,48.80
2022-10-07T15:51:36.510Z,48.58
2022-10-07T15:54:03.853Z,49.58
2022-10-07T15:56:30.696Z,49.66
2022-10-07T15:58:58.946Z,49.61
2022-10-07T16:01:32.016Z,50.56
2022-10-07T16:03:59.851Z,50.23
2022-10-07T16:06:27.469Z,50.11
2022-10-07T16:08:55.210Z,49.75
2022-10-07T16:11:22.411Z,50.02
2022-10-07T16:13:49.216Z,49.79
2022-10-07T16:16:23.691Z,49.51
2022-10-07T16:18:51.210Z,49.73
2022-10-07T16:21:22.134Z,49.48
2022-10-07T16:23:49.976Z,49.89
2022-10-07T16:26:18.590Z,50.00
2022-10-07T16:29:05.809Z,50.09
2022-10-07T16:31:35.309Z,51.98
2022-10-07T16:34:03.655Z,50.99
2022-10-07T16:36:30.589Z,51.57
2022-10-07T16:38:59.868Z,52.81
2022-10-07T16:41:26.696Z,52.08
2022-10-07T16:43:53.353Z,51.74
2022-10-07T16:46:21.098Z,53.11
2022-10-07T16:48:48.831Z,53.81
2022-10-07T16:51:19.576Z,54.09
2022-10-07T16:53:47.040Z,53.25
2022-10-07T16:56:13.781Z,53.65
2022-10-07T16:58:40.544Z,53.95
2022-10-07T17:01:12.080Z,54.01
2022-10-07T17:03:39.924Z,54.43
2022-10-07T17:06:10.061Z,54.54
2022-10-07T17:08:41.942Z,54.30
2022-10-07T17:11:14.412Z,55.12
2022-10-07T17:13:41.131Z,55.61
2022-10-07T17:16:09.066Z,57.14
2022-10-07T17:18:35.912Z,60.24
2022-10-07T17:21:02.531Z,57.71
2022-10-07T17:23:33.212Z,57.92
2022-10-07T17:26:04.180Z,57.48
2022-10-07T17:28:30.863Z,58.34
2022-10-07T17:31:03.250Z,58.63
2022-10-07T17:33:30.571Z,60.55
2022-10-07T17:36:00.788Z,61.62
2022-10-07T17:38:31.610Z,59.68
2022-10-07T17:40:58.290Z,59.80
2022-10-07T17:43:24.938Z,59.64
2022-10-07T17:45:51.729Z,61.64
2022-10-07T17:48:18.376Z,62.02
2022-10-07T17:50:45.009Z,60.41
2022-10-07T17:53:11.791Z,59.51
2022-10-07T17:55:38.511Z,59.55
2022-10-07T17:58:05.169Z,58.94
2022-10-07T18:00:32.400Z,57.91
2022-10-07T18:02:59.271Z,57.71
2022-10-07T18:05:26.640Z,56.17
2022-10-07T18:07:53.709Z,55.98
2022-10-07T18:10:20.615Z,56.04
2022-10-07T18:13:05.691Z,55.47
2022-10-07T18:15:32.412Z,55.66
2022-10-07T18:17:59.091Z,54.44
2022-10-07T18:20:26.683Z,54.86
2022-10-07T18:22:54.778Z,54.71
2022-10-07T18:25:21.692Z,53.92
2022-10-07T18:27:48.833Z,54.68
2022-10-07T18:30:15.822Z,54.52
2022-10-07T18:32:42.810Z,55.03
2022-10-07T18:35:09.658Z,55.30
2022-10-07T18:37:37.592Z,55.08
2022-10-07T18:40:04.550Z,55.20
2022-10-07T18:42:31.230Z,55.44
2022-10-07T18:44:58.055Z,54.64
2022-10-07T18:47:25.016Z,55.07
2022-10-07T18:49:52.234Z,55.63
2022-10-07T18:52:19.050Z,55.45
2022-10-07T18:54:45.787Z,56.10
2022-10-07T18:57:12.463Z,55.64
2022-10-07T18:59:39.191Z,55.62
2022-10-07T19:02:05.922Z,55.75
2022-10-07T19:04:34.811Z,57.52
2022-10-07T19:07:01.750Z,57.10
2022-10-07T19:09:28.971Z,56.06
2022-10-07T19:11:55.661Z,56.46
2022-10-07T19:14:26.122Z,56.23
2022-10-07T19:16:54.131Z,56.68
2022-10-07T19:19:22.262Z,56.00
2022-10-07T19:21:51.221Z,55.77
2022-10-07T19:24:18.451Z,56.20
2022-10-07T19:26:46.151Z,55.29
2022-10-07T19:29:15.686Z,56.02
2022-10-07T19:31:47.022Z,55.59
2022-10-07T19:34:15.145Z,55.62
2022-10-07T19:36:42.699Z,56.26
2022-10-07T19:39:10.877Z,55.77
2022-10-07T19:41:37.908Z,55.58
2022-10-07T19:44:05.230Z,56.31
2022-10-07T19:46:33.622Z,63.61
2022-10-07T19:49:01.691Z,64.79
2022-10-07T19:51:30.476Z,62.31
2022-10-07T19:53:57.952Z,59.08
2022-10-07T19:56:29.039Z,57.21
2022-10-07T19:58:56.833Z,58.52
2022-10-07T20:01:25.155Z,58.27
2022-10-07T20:03:57.920Z,57.72
2022-10-07T20:06:25.399Z,57.45
2022-10-07T20:08:52.456Z,57.64
2022-10-07T20:11:19.175Z,57.55
2022-10-07T20:13:45.896Z,56.69
2022-10-07T20:16:19.177Z,57.40
2022-10-07T20:18:47.335Z,57.25
2022-10-07T20:21:19.383Z,57.42
2022-10-07T20:23:47.179Z,57.46
2022-10-07T20:26:19.233Z,57.00
2022-10-07T20:28:47.792Z,57.21
2022-10-07T20:31:15.531Z,56.94
2022-10-07T20:33:43.616Z,58.46
2022-10-07T20:36:11.140Z,57.22
2022-10-07T20:38:56.473Z,56.47
2022-10-07T20:41:42.492Z,56.54
2022-10-07T20:44:09.639Z,57.10
2022-10-07T20:46:38.092Z,57.15
2022-10-07T20:49:11.392Z,57.18
2022-10-07T20:51:41.410Z,57.02
2022-10-07T20:54:08.209Z,56.29
2022-10-07T20:56:34.939Z,56.64
2022-10-07T20:59:01.653Z,57.04
2022-10-07T21:01:28.529Z,58.37
2022-10-07T21:03:55.293Z,58.41
2022-10-07T21:06:21.969Z,58.50
2022-10-07T21:08:53.656Z,57.64
2022-10-07T21:11:20.348Z,57.83
2022-10-07T21:13:46.952Z,57.28
2022-10-07T21:16:13.635Z,57.17
2022-10-07T21:18:40.356Z,57.32
2022-10-07T21:21:08.009Z,57.13
2022-10-07T21:23:34.732Z,57.16
2022-10-07T21:26:05.616Z,57.47
2022-10-07T21:28:32.981Z,57.07
2022-10-07T21:31:01.262Z,56.82
2022-10-07T21:33:28.049Z,58.23
2022-10-07T21:36:04.950Z,57.69
2022-10-07T21:38:32.223Z,58.48
2022-10-07T21:41:01.896Z,58.24
2022-10-07T21:43:28.573Z,58.62
2022-10-07T21:45:59.550Z,58.40
2022-10-07T21:48:29.853Z,58.89
2022-10-07T21:50:56.929Z,58.58
2022-10-07T21:53:23.610Z,59.17
2022-10-07T21:55:50.454Z,59.05
2022-10-07T21:58:17.135Z,58.77
2022-10-07T22:00:44.193Z,59.22
2022-10-07T22:03:11.064Z,58.53
2022-10-07T22:05:40.375Z,58.53
2022-10-07T22:08:26.471Z,59.60
2022-10-07T22:11:00.149Z,60.25
2022-10-07T22:13:26.812Z,63.52
2022-10-07T22:15:53.497Z,63.26
2022-10-07T22:18:20.091Z,62.05
2022-10-07T22:20:46.690Z,61.12
2022-10-07T22:23:13.330Z,61.07
2022-10-07T22:25:39.929Z,61.19
2022-10-07T22:28:06.587Z,62.37
2022-10-07T22:30:33.310Z,60.52
2022-10-07T22:32:59.932Z,60.54
2022-10-07T22:35:35.150Z,60.67
2022-10-07T22:38:01.935Z,60.02
2022-10-07T22:40:28.829Z,59.88
2022-10-07T22:42:55.532Z,60.39
2022-10-07T22:45:22.162Z,59.83
2022-10-07T22:47:50.369Z,59.45
2022-10-07T22:50:17.250Z,59.83
2022-10-07T22:52:44.175Z,60.14
2022-10-07T22:55:11.008Z,61.91
2022-10-07T22:57:37.735Z,61.08
2022-10-07T23:00:07.772Z,61.33
2022-10-07T23:02:34.508Z,60.67
2022-10-07T23:05:01.784Z,59.91
2022-10-07T23:07:31.370Z,58.80
2022-10-07T23:09:58.090Z,58.56
2022-10-07T23:12:24.753Z,59.16
2022-10-07T23:14:51.391Z,60.29
2022-10-07T23:17:18.011Z,60.23
2022-10-07T23:19:44.627Z,60.35
2022-10-07T23:22:12.770Z,60.17
2022-10-07T23:24:39.890Z,60.20
2022-10-07T23:27:06.593Z,60.76
2022-10-07T23:29:33.398Z,60.67
2022-10-07T23:32:00.034Z,60.01
2022-10-07T23:34:27.689Z,60.52
2022-10-07T23:36:55.436Z,60.20
2022-10-07T23:39:22.451Z,60.20
2022-10-07T23:41:49.620Z,61.40
2022-10-07T23:44:16.216Z,60.83
2022-10-07T23:46:42.879Z,60.49
2022-10-07T23:49:09.595Z,60.82
2022-10-07T23:51:36.271Z,59.81
2022-10-07T23:54:03.598Z,60.15
2022-10-07T23:56:31.061Z,60.54
2022-10-07T23:58:57.753Z,59.80
